Hillsboro, VA (20132)

12:29 AM EDT on March 27, 2015 (GMT -0400)
Pipe and Nail Pub on S. Short Hill Mtn. | | Change Station
CLOSE
Current Station
Personal Weather Station
Location: Purcellville, VA
Elevation: 945 ft
Nearby Weather Stations

Elev 945 ft 39.19 °N, 77.74 °W | Updated 11 seconds ago

Overcast
Overcast
44.2 °F
Feels Like 44 °F
N
3.0
Wind Variable Wind from WNW
Gusts 19.0 mph

Today
High -- | Low -- °F
--% Chance of Precip.
Yesterday
High -- | Low -- °F
Precip. -- in
7:03 AM 7:29 PM
Waxing Crescent, 49% visible
Pressure 29.78 in
Visibility 10.0 miles
Clouds Overcast 7000 ft
Windchill 44 °F
Dew Point 39 °F
Humidity 83%
Rainfall 0.00 in
Snow Depth Not available.
UV 0 out of 12
Pollen 9.20 out of 12
Air Quality Not available.
Flu Activity Not available.
METAR KJYO 270415Z AUTO 35006KT 10SM OVC070 10/07 A2978 RMK AO2

More Conditions Fewer Conditions

Pressure 29.78 in
Visibility 10.0 miles
Clouds Overcast 7000 ft
Windchill 44 °F
Dew Point 39 °F
Humidity 83%
Rainfall 0.00 in
Snow Depth Not available.
UV 0 out of 12
Pollen 9.20 out of 12
Air Quality Not available.
Flu Activity Not available.
METAR KJYO 270415Z AUTO 35006KT 10SM OVC070 10/07 A2978 RMK AO2

More Conditions Fewer Conditions

10-Day Weather Forecast

Almanac

Astronomy

Mar. 27, 2015 Rise Set
Actual Time
Civil Twilight
Nautical Twilight
Astronomical Twilight
Moon
Length of Visible Light
Length of Day
Tomorrow will be .
, % of the Moon is Illuminated

Today's Extremes

State Highs State Lows

Community

WunderPhotos

Upload Photos

1,808,706 photos uploaded!

WunderBlogs® & News

Nearby

Air Quality

  Air Quality AQ Index Pollutant
Not available.

Snow Depth

Station Depth Elevation

Earthquake Activity

City Distance Mag. Time & Date
Minimum magnitude displayed is 2.5.

Coastal Water Temperatures

Place Temperature

Stations

Nearby Weather Stations

Station Location Temp. Windchill Dew Point Humidity Wind Precip. Elev Updated Type